sensor_id;sensor_type;location;lat;lon;timestamp;pressure;altitude;pressure_sealevel;temperature;humidity
71768;BME280;59604;52.138;5.446;2023-03-03T00:02:14;102730.75;;;0.44;100.00
71768;BME280;59604;52.138;5.446;2023-03-03T00:04:41;102737.66;;;0.44;100.00
71768;BME280;59604;52.138;5.446;2023-03-03T00:07:07;102740.19;;;0.45;100.00
71768;BME280;59604;52.138;5.446;2023-03-03T00:09:34;102734.03;;;0.48;100.00
71768;BME280;59604;52.138;5.446;2023-03-03T00:12:01;102731.22;;;0.53;100.00
71768;BME280;59604;52.138;5.446;2023-03-03T00:14:39;102736.38;;;0.53;100.00
71768;BME280;59604;52.138;5.446;2023-03-03T00:17:17;102731.81;;;0.58;100.00
71768;BME280;59604;52.138;5.446;2023-03-03T00:19:46;102729.84;;;0.63;100.00
71768;BME280;59604;52.138;5.446;2023-03-03T00:22:19;102733.97;;;0.67;100.00
71768;BME280;59604;52.138;5.446;2023-03-03T00:24:49;102739.88;;;0.69;100.00
71768;BME280;59604;52.138;5.446;2023-03-03T00:27:30;102737.97;;;0.72;100.00
71768;BME280;59604;52.138;5.446;2023-03-03T00:30:01;102747.44;;;0.73;100.00
71768;BME280;59604;52.138;5.446;2023-03-03T00:32:44;102748.34;;;0.72;100.00
71768;BME280;59604;52.138;5.446;2023-03-03T00:35:30;102755.16;;;0.75;100.00
71768;BME280;59604;52.138;5.446;2023-03-03T00:38:16;102752.63;;;0.73;100.00
71768;BME280;59604;52.138;5.446;2023-03-03T00:40:44;102755.31;;;0.72;100.00
71768;BME280;59604;52.138;5.446;2023-03-03T00:45:48;102752.78;;;0.70;100.00
71768;BME280;59604;52.138;5.446;2023-03-03T00:48:42;102752.72;;;0.72;100.00
71768;BME280;59604;52.138;5.446;2023-03-03T00:53:48;102753.63;;;0.71;100.00
71768;BME280;59604;52.138;5.446;2023-03-03T00:56:15;102751.88;;;0.71;100.00
71768;BME280;59604;52.138;5.446;2023-03-03T00:58:42;102759.66;;;0.71;100.00
71768;BME280;59604;52.138;5.446;2023-03-03T01:01:11;102753.63;;;0.71;100.00
71768;BME280;59604;52.138;5.446;2023-03-03T01:03:37;102757.91;;;0.72;100.00
71768;BME280;59604;52.138;5.446;2023-03-03T01:06:04;102763.78;;;0.76;100.00
71768;BME280;59604;52.138;5.446;2023-03-03T01:08:31;102756.81;;;0.76;100.00
71768;BME280;59604;52.138;5.446;2023-03-03T01:11:06;102762.09;;;0.75;100.00
71768;BME280;59604;52.138;5.446;2023-03-03T01:13:36;102760.34;;;0.75;100.00
71768;BME280;59604;52.138;5.446;2023-03-03T01:16:05;102768.81;;;0.79;100.00
71768;BME280;59604;52.138;5.446;2023-03-03T01:18:33;102770.47;;;0.80;100.00
71768;BME280;59604;52.138;5.446;2023-03-03T01:21:00;102764.38;;;0.81;100.00
71768;BME280;59604;52.138;5.446;2023-03-03T01:23:27;102763.47;;;0.82;100.00
71768;BME280;59604;52.138;5.446;2023-03-03T01:25:54;102766.06;;;0.82;100.00
71768;BME280;59604;52.138;5.446;2023-03-03T01:28:21;102766.13;;;0.80;100.00
71768;BME280;59604;52.138;5.446;2023-03-03T01:30:48;102765.38;;;0.78;100.00
71768;BME280;59604;52.138;5.446;2023-03-03T01:33:15;102761.09;;;0.77;100.00
71768;BME280;59604;52.138;5.446;2023-03-03T01:35:43;102761.09;;;0.77;100.00
71768;BME280;59604;52.138;5.446;2023-03-03T01:38:11;102760.25;;;0.77;100.00
71768;BME280;59604;52.138;5.446;2023-03-03T01:40:37;102757.59;;;0.78;100.00
71768;BME280;59604;52.138;5.446;2023-03-03T01:43:04;102764.47;;;0.79;100.00
71768;BME280;59604;52.138;5.446;2023-03-03T01:50:54;102759.19;;;0.81;100.00
71768;BME280;59604;52.138;5.446;2023-03-03T01:56:06;102760.88;;;0.82;100.00
71768;BME280;59604;52.138;5.446;2023-03-03T01:58:36;102755.75;;;0.80;100.00
71768;BME280;59604;52.138;5.446;2023-03-03T02:01:08;102763.53;;;0.80;100.00
71768;BME280;59604;52.138;5.446;2023-03-03T02:03:38;102762.69;;;0.80;100.00
71768;BME280;59604;52.138;5.446;2023-03-03T02:06:13;102764.38;;;0.81;100.00
71768;BME280;59604;52.138;5.446;2023-03-03T02:08:56;102762.63;;;0.81;100.00
71768;BME280;59604;52.138;5.446;2023-03-03T02:11:25;102763.53;;;0.80;100.00
71768;BME280;59604;52.138;5.446;2023-03-03T02:13:54;102760.94;;;0.80;100.00
71768;BME280;59604;52.138;5.446;2023-03-03T02:16:20;102762.69;;;0.80;100.00
71768;BME280;59604;52.138;5.446;2023-03-03T02:18:47;102760.09;;;0.80;100.00
71768;BME280;59604;52.138;5.446;2023-03-03T02:21:17;102763.69;;;0.77;100.00
71768;BME280;59604;52.138;5.446;2023-03-03T02:26:31;102764.75;;;0.73;100.00
71768;BME280;59604;52.138;5.446;2023-03-03T02:28:59;102764.06;;;0.69;100.00
71768;BME280;59604;52.138;5.446;2023-03-03T02:31:28;102769.25;;;0.69;100.00
71768;BME280;59604;52.138;5.446;2023-03-03T02:33:56;102760.72;;;0.67;100.00
71768;BME280;59604;52.138;5.446;2023-03-03T02:36:26;102760.78;;;0.66;100.00
71768;BME280;59604;52.138;5.446;2023-03-03T02:38:58;102767.81;;;0.64;100.00
71768;BME280;59604;52.138;5.446;2023-03-03T02:44:19;102757.13;;;0.53;100.00
71768;BME280;59604;52.138;5.446;2023-03-03T02:46:47;102760.69;;;0.50;100.00
71768;BME280;59604;52.138;5.446;2023-03-03T02:49:17;102759.97;;;0.48;100.00
71768;BME280;59604;52.138;5.446;2023-03-03T02:51:44;102757.38;;;0.48;100.00
71768;BME280;59604;52.138;5.446;2023-03-03T02:54:12;102763.53;;;0.45;100.00
71768;BME280;59604;52.138;5.446;2023-03-03T02:56:38;102760.94;;;0.45;100.00
71768;BME280;59604;52.138;5.446;2023-03-03T02:59:05;102770.66;;;0.40;100.00
71768;BME280;59604;52.138;5.446;2023-03-03T03:01:32;102768.31;;;0.36;100.00
71768;BME280;59604;52.138;5.446;2023-03-03T03:04:14;102767.47;;;0.35;100.00
71768;BME280;59604;52.138;5.446;2023-03-03T03:06:41;102773.44;;;0.37;100.00
71768;BME280;59604;52.138;5.446;2023-03-03T03:09:08;102779.31;;;0.41;100.00
71768;BME280;59604;52.138;5.446;2023-03-03T03:11:35;102767.94;;;0.43;100.00
71768;BME280;59604;52.138;5.446;2023-03-03T03:14:04;102767.72;;;0.48;100.00
71768;BME280;59604;52.138;5.446;2023-03-03T03:16:31;102770.38;;;0.46;100.00
71768;BME280;59604;52.138;5.446;2023-03-03T03:18:59;102767.72;;;0.48;100.00
71768;BME280;59604;52.138;5.446;2023-03-03T03:21:26;102759.78;;;0.51;100.00
71768;BME280;59604;52.138;5.446;2023-03-03T03:23:53;102757.03;;;0.54;100.00
71768;BME280;59604;52.138;5.446;2023-03-03T03:26:19;102756.06;;;0.57;100.00
71768;BME280;59604;52.138;5.446;2023-03-03T03:28:47;102756.81;;;0.59;100.00
71768;BME280;59604;52.138;5.446;2023-03-03T03:31:15;102767.97;;;0.61;100.00
71768;BME280;59604;52.138;5.446;2023-03-03T03:33:42;102767.88;;;0.62;100.00
71768;BME280;59604;52.138;5.446;2023-03-03T03:36:10;102764.31;;;0.65;100.00
71768;BME280;59604;52.138;5.446;2023-03-03T03:38:37;102759.88;;;0.67;100.00
71768;BME280;59604;52.138;5.446;2023-03-03T03:41:04;102768.66;;;0.64;100.00
71768;BME280;59604;52.138;5.446;2023-03-03T03:43:32;102765.13;;;0.65;100.00
71768;BME280;59604;52.138;5.446;2023-03-03T03:45:58;102769.56;;;0.63;100.00
71768;BME280;59604;52.138;5.446;2023-03-03T03:48:25;102773.84;;;0.64;100.00
71768;BME280;59604;52.138;5.446;2023-03-03T03:50:52;102776.34;;;0.66;100.00
71768;BME280;59604;52.138;5.446;2023-03-03T03:53:18;102773.00;;;0.64;100.00
71768;BME280;59604;52.138;5.446;2023-03-03T03:55:45;102775.59;;;0.64;100.00
71768;BME280;59604;52.138;5.446;2023-03-03T03:58:16;102776.53;;;0.63;100.00
71768;BME280;59604;52.138;5.446;2023-03-03T04:00:44;102774.63;;;0.66;100.00
71768;BME280;59604;52.138;5.446;2023-03-03T04:03:11;102789.16;;;0.69;100.00
71768;BME280;59604;52.138;5.446;2023-03-03T04:05:40;102786.50;;;0.70;100.00
71768;BME280;59604;52.138;5.446;2023-03-03T04:08:07;102788.19;;;0.71;100.00
71768;BME280;59604;52.138;5.446;2023-03-03T04:10:34;102790.69;;;0.73;100.00
71768;BME280;59604;52.138;5.446;2023-03-03T04:13:00;102785.59;;;0.71;100.00
71768;BME280;59604;52.138;5.446;2023-03-03T04:15:27;102780.41;;;0.71;100.00
71768;BME280;59604;52.138;5.446;2023-03-03T04:17:56;102783.06;;;0.70;100.00
71768;BME280;59604;52.138;5.446;2023-03-03T04:20:22;102783.06;;;0.70;100.00
71768;BME280;59604;52.138;5.446;2023-03-03T04:22:49;102780.53;;;0.68;100.00
71768;BME280;59604;52.138;5.446;2023-03-03T04:25:16;102778.09;;;0.65;100.00
71768;BME280;59604;52.138;5.446;2023-03-03T04:27:43;102778.09;;;0.65;100.00
71768;BME280;59604;52.138;5.446;2023-03-03T04:30:11;102778.19;;;0.64;100.00
71768;BME280;59604;52.138;5.446;2023-03-03T04:32:38;102774.66;;;0.65;100.00
71768;BME280;59604;52.138;5.446;2023-03-03T04:35:05;102787.50;;;0.68;100.00
71768;BME280;59604;52.138;5.446;2023-03-03T04:37:34;102780.47;;;0.70;100.00
71768;BME280;59604;52.138;5.446;2023-03-03T04:40:01;102775.28;;;0.70;100.00
71768;BME280;59604;52.138;5.446;2023-03-03T04:42:29;102784.66;;;0.72;100.00
71768;BME280;59604;52.138;5.446;2023-03-03T04:44:56;102781.25;;;0.72;100.00
71768;BME280;59604;52.138;5.446;2023-03-03T04:47:22;102789.00;;;0.72;100.00
71768;BME280;59604;52.138;5.446;2023-03-03T04:49:49;102783.91;;;0.70;100.00
71768;BME280;59604;52.138;5.446;2023-03-03T04:52:16;102790.78;;;0.71;100.00
71768;BME280;59604;52.138;5.446;2023-03-03T04:54:42;102789.09;;;0.70;100.00
71768;BME280;59604;52.138;5.446;2023-03-03T04:57:10;102789.94;;;0.71;100.00
71768;BME280;59604;52.138;5.446;2023-03-03T04:59:36;102796.78;;;0.72;100.00
71768;BME280;59604;52.138;5.446;2023-03-03T05:02:03;102788.09;;;0.73;100.00
71768;BME280;59604;52.138;5.446;2023-03-03T05:04:32;102790.69;;;0.73;100.00
71768;BME280;59604;52.138;5.446;2023-03-03T05:06:58;102781.09;;;0.75;100.00
71768;BME280;59604;52.138;5.446;2023-03-03T05:09:25;102772.38;;;0.76;100.00
71768;BME280;59604;52.138;5.446;2023-03-03T05:11:52;102774.97;;;0.76;100.00
71768;BME280;59604;52.138;5.446;2023-03-03T05:14:19;102781.84;;;0.77;100.00
71768;BME280;59604;52.138;5.446;2023-03-03T05:16:46;102777.56;;;0.76;100.00
71768;BME280;59604;52.138;5.446;2023-03-03T05:19:12;102778.41;;;0.77;100.00
71768;BME280;59604;52.138;5.446;2023-03-03T05:21:39;102774.91;;;0.78;100.00
71768;BME280;59604;52.138;5.446;2023-03-03T05:24:10;102777.44;;;0.79;100.00
71768;BME280;59604;52.138;5.446;2023-03-03T05:26:37;102781.84;;;0.77;100.00
71768;BME280;59604;52.138;5.446;2023-03-03T05:29:04;102786.03;;;0.80;100.00
71768;BME280;59604;52.138;5.446;2023-03-03T05:31:31;102779.19;;;0.79;100.00
71768;BME280;59604;52.138;5.446;2023-03-03T05:33:58;102780.84;;;0.80;100.00
71768;BME280;59604;52.138;5.446;2023-03-03T05:36:24;102779.88;;;0.82;100.00
71768;BME280;59604;52.138;5.446;2023-03-03T05:38:51;102777.28;;;0.82;100.00
71768;BME280;59604;52.138;5.446;2023-03-03T05:41:18;102780.72;;;0.83;100.00
71768;BME280;59604;52.138;5.446;2023-03-03T05:43:44;102785.97;;;0.81;100.00
71768;BME280;59604;52.138;5.446;2023-03-03T05:46:11;102785.97;;;0.81;100.00
71768;BME280;59604;52.138;5.446;2023-03-03T05:48:38;102784.97;;;0.84;100.00
71768;BME280;59604;52.138;5.446;2023-03-03T05:51:05;102782.31;;;0.85;100.00
71768;BME280;59604;52.138;5.446;2023-03-03T05:53:31;102788.19;;;0.89;100.00
71768;BME280;59604;52.138;5.446;2023-03-03T05:55:58;102781.09;;;0.92;100.00
71768;BME280;59604;52.138;5.446;2023-03-03T05:58:25;102784.53;;;0.93;100.00
71768;BME280;59604;52.138;5.446;2023-03-03T06:00:51;102796.66;;;0.92;100.00
71768;BME280;59604;52.138;5.446;2023-03-03T06:03:18;102784.53;;;0.93;100.00
71768;BME280;59604;52.138;5.446;2023-03-03T06:05:45;102796.66;;;0.92;100.00
71768;BME280;59604;52.138;5.446;2023-03-03T06:08:11;102792.31;;;0.93;100.00
71768;BME280;59604;52.138;5.446;2023-03-03T06:10:38;102794.06;;;0.92;100.00
71768;BME280;59604;52.138;5.446;2023-03-03T06:13:04;102803.53;;;0.93;100.00
71768;BME280;59604;52.138;5.446;2023-03-03T06:15:31;102801.75;;;0.94;100.00
71768;BME280;59604;52.138;5.446;2023-03-03T06:17:58;102794.81;;;0.94;100.00
71768;BME280;59604;52.138;5.446;2023-03-03T06:20:24;102805.97;;;0.96;100.00
71768;BME280;59604;52.138;5.446;2023-03-03T06:22:51;102803.44;;;0.95;100.00
71768;BME280;59604;52.138;5.446;2023-03-03T06:25:18;102810.31;;;0.96;100.00
71768;BME280;59604;52.138;5.446;2023-03-03T06:27:44;102810.16;;;0.99;100.00
71768;BME280;59604;52.138;5.446;2023-03-03T06:30:11;102813.53;;;1.01;100.00
71768;BME280;59604;52.138;5.446;2023-03-03T06:32:38;102811.00;;;1.00;100.00
71768;BME280;59604;52.138;5.446;2023-03-03T06:35:05;102810.94;;;1.01;100.00
71768;BME280;59604;52.138;5.446;2023-03-03T06:37:32;102803.06;;;1.03;100.00
71768;BME280;59604;52.138;5.446;2023-03-03T06:39:59;102814.28;;;1.03;100.00
71768;BME280;59604;52.138;5.446;2023-03-03T06:42:25;102817.63;;;1.05;100.00
71768;BME280;59604;52.138;5.446;2023-03-03T06:44:52;102820.13;;;1.07;100.00
71768;BME280;59604;52.138;5.446;2023-03-03T06:47:18;102818.31;;;1.09;100.00
71768;BME280;59604;52.138;5.446;2023-03-03T06:49:45;102829.47;;;1.11;100.00
71768;BME280;59604;52.138;5.446;2023-03-03T06:52:22;102825.97;;;1.12;100.00
71768;BME280;59604;52.138;5.446;2023-03-03T06:54:53;102831.06;;;1.13;100.00
71768;BME280;59604;52.138;5.446;2023-03-03T06:57:29;102827.47;;;1.16;100.00
71768;BME280;59604;52.138;5.446;2023-03-03T07:00:01;102832.44;;;1.20;100.00
71768;BME280;59604;52.138;5.446;2023-03-03T07:02:35;102829.53;;;1.27;100.00
71768;BME280;59604;52.138;5.446;2023-03-03T07:05:06;102836.34;;;1.29;100.00
71768;BME280;59604;52.138;5.446;2023-03-03T07:07:36;102834.63;;;1.28;100.00
71768;BME280;59604;52.138;5.446;2023-03-03T07:10:09;102844.13;;;1.29;100.00
71768;BME280;59604;52.138;5.446;2023-03-03T07:12:38;102843.34;;;1.27;100.00
71768;BME280;59604;52.138;5.446;2023-03-03T07:17:44;102861.06;;;1.36;100.00
71768;BME280;59604;52.138;5.446;2023-03-03T07:20:20;102856.63;;;1.38;100.00
71768;BME280;59604;52.138;5.446;2023-03-03T07:22:47;102858.22;;;1.41;100.00
71768;BME280;59604;52.138;5.446;2023-03-03T07:25:21;102858.13;;;1.42;100.00
71768;BME280;59604;52.138;5.446;2023-03-03T07:27:55;102860.59;;;1.45;100.00
71768;BME280;59604;52.138;5.446;2023-03-03T07:30:28;102861.28;;;1.49;100.00
71768;BME280;59604;52.138;5.446;2023-03-03T07:32:57;102859.44;;;1.51;100.00
71768;BME280;59604;52.138;5.446;2023-03-03T07:35:42;102861.13;;;1.52;100.00
71768;BME280;59604;52.138;5.446;2023-03-03T07:40:46;102867.69;;;1.59;100.00
71768;BME280;59604;52.138;5.446;2023-03-03T07:43:35;102878.81;;;1.61;100.00
71768;BME280;59604;52.138;5.446;2023-03-03T07:48:51;102883.84;;;1.64;100.00
71768;BME280;59604;52.138;5.446;2023-03-03T07:51:36;102882.88;;;1.67;100.00
71768;BME280;59604;52.138;5.446;2023-03-03T07:54:38;102877.19;;;1.76;100.00
71768;BME280;59604;52.138;5.446;2023-03-03T07:59:36;102884.66;;;1.82;100.00
71768;BME280;59604;52.138;5.446;2023-03-03T08:02:15;102886.13;;;1.88;100.00
71768;BME280;59604;52.138;5.446;2023-03-03T08:04:50;102884.00;;;1.94;100.00
71768;BME280;59604;52.138;5.446;2023-03-03T08:07:20;102896.53;;;2.04;100.00
71768;BME280;59604;52.138;5.446;2023-03-03T08:10:00;102902.16;;;2.12;100.00
71768;BME280;59604;52.138;5.446;2023-03-03T08:12:40;102893.38;;;2.14;100.00
71768;BME280;59604;52.138;5.446;2023-03-03T08:15:16;102909.63;;;2.18;100.00
71768;BME280;59604;52.138;5.446;2023-03-03T08:17:44;102908.53;;;2.22;100.00
71768;BME280;59604;52.138;5.446;2023-03-03T08:20:49;102908.53;;;2.22;100.00
71768;BME280;59604;52.138;5.446;2023-03-03T08:23:17;102915.56;;;2.20;100.00
71768;BME280;59604;52.138;5.446;2023-03-03T08:25:44;102910.38;;;2.20;100.00
71768;BME280;59604;52.138;5.446;2023-03-03T08:28:12;102910.88;;;2.27;100.00
71768;BME280;59604;52.138;5.446;2023-03-03T08:30:39;102914.06;;;2.32;100.00
71768;BME280;59604;52.138;5.446;2023-03-03T08:33:06;102914.59;;;2.38;100.00
71768;BME280;59604;52.138;5.446;2023-03-03T08:35:33;102920.81;;;2.52;100.00
71768;BME280;59604;52.138;5.446;2023-03-03T08:37:59;102919.72;;;2.56;100.00
71768;BME280;59604;52.138;5.446;2023-03-03T08:40:26;102916.13;;;2.58;100.00
71768;BME280;59604;52.138;5.446;2023-03-03T08:42:53;102922.66;;;2.65;100.00
71768;BME280;59604;52.138;5.446;2023-03-03T08:45:19;102924.06;;;2.71;100.00
71768;BME280;59604;52.138;5.446;2023-03-03T08:47:46;102921.22;;;2.76;100.00
71768;BME280;59604;52.138;5.446;2023-03-03T08:50:13;102918.19;;;2.83;100.00
71768;BME280;59604;52.138;5.446;2023-03-03T08:52:40;102915.50;;;2.85;100.00
71768;BME280;59604;52.138;5.446;2023-03-03T08:55:07;102920.72;;;2.85;100.00
71768;BME280;59604;52.138;5.446;2023-03-03T08:57:34;102913.97;;;2.97;100.00
71768;BME280;59604;52.138;5.446;2023-03-03T09:00:01;102914.38;;;3.05;100.00
71768;BME280;59604;52.138;5.446;2023-03-03T09:02:29;102919.13;;;3.12;100.00
71768;BME280;59604;52.138;5.446;2023-03-03T09:04:56;102912.66;;;3.20;100.00
71768;BME280;59604;52.138;5.446;2023-03-03T09:07:22;102921.78;;;3.27;100.00
71768;BME280;59604;52.138;5.446;2023-03-03T09:09:49;102922.94;;;3.37;100.00
71768;BME280;59604;52.138;5.446;2023-03-03T09:12:18;102920.34;;;3.37;100.00
71768;BME280;59604;52.138;5.446;2023-03-03T09:14:49;102916.13;;;3.34;100.00
71768;BME280;59604;52.138;5.446;2023-03-03T09:19:48;102922.84;;;3.38;100.00
71768;BME280;59604;52.138;5.446;2023-03-03T09:22:22;102914.84;;;3.42;100.00
71768;BME280;59604;52.138;5.446;2023-03-03T09:24:52;102917.41;;;3.57;100.00
71768;BME280;59604;52.138;5.446;2023-03-03T09:29:52;102925.69;;;3.78;100.00
71768;BME280;59604;52.138;5.446;2023-03-03T09:32:33;102922.84;;;3.83;100.00
71768;BME280;59604;52.138;5.446;2023-03-03T09:35:25;102923.28;;;3.90;100.00
71768;BME280;59604;52.138;5.446;2023-03-03T09:38:11;102921.25;;;3.95;100.00
71768;BME280;59604;52.138;5.446;2023-03-03T09:52:06;102928.31;;;4.21;100.00
71768;BME280;59604;52.138;5.446;2023-03-03T09:57:16;102933.53;;;4.35;99.53
71768;BME280;59604;52.138;5.446;2023-03-03T10:02:36;102936.59;;;4.42;98.69
71768;BME280;59604;52.138;5.446;2023-03-03T10:05:18;102932.94;;;4.45;98.38
71768;BME280;59604;52.138;5.446;2023-03-03T10:08:09;102937.03;;;4.49;97.98
71768;BME280;59604;52.138;5.446;2023-03-03T10:10:50;102937.66;;;4.52;97.88
71768;BME280;59604;52.138;5.446;2023-03-03T10:19:19;102933.66;;;4.61;97.36
71768;BME280;59604;52.138;5.446;2023-03-03T10:24:28;102929.56;;;4.84;96.65
71768;BME280;59604;52.138;5.446;2023-03-03T10:32:53;102920.19;;;4.67;95.38
71768;BME280;59604;52.138;5.446;2023-03-03T10:46:49;102923.03;;;5.31;93.18
71768;BME280;59604;52.138;5.446;2023-03-03T10:49:51;102925.03;;;5.40;91.88
71768;BME280;59604;52.138;5.446;2023-03-03T10:56:11;102924.44;;;5.75;89.12
71768;BME280;59604;52.138;5.446;2023-03-03T11:01:35;102923.69;;;6.11;88.11
71768;BME280;59604;52.138;5.446;2023-03-03T11:04:27;102915.06;;;6.35;88.31
71768;BME280;59604;52.138;5.446;2023-03-03T11:07:10;102921.88;;;6.37;85.70
71768;BME280;59604;52.138;5.446;2023-03-03T11:18:12;102918.28;;;6.75;84.51
71768;BME280;59604;52.138;5.446;2023-03-03T11:31:48;102898.59;;;6.45;81.97
71768;BME280;59604;52.138;5.446;2023-03-03T11:37:11;102889.47;;;6.75;80.69
71768;BME280;59604;52.138;5.446;2023-03-03T11:39:43;102885.38;;;6.95;79.04
71768;BME280;59604;52.138;5.446;2023-03-03T11:44:54;102884.41;;;7.20;78.03
71768;BME280;59604;52.138;5.446;2023-03-03T11:47:46;102891.47;;;7.42;77.69
71768;BME280;59604;52.138;5.446;2023-03-03T11:50:20;102893.50;;;7.38;75.87
71768;BME280;59604;52.138;5.446;2023-03-03T11:53:25;102892.88;;;7.23;75.16
71768;BME280;59604;52.138;5.446;2023-03-03T11:59:00;102885.41;;;7.06;75.37
71768;BME280;59604;52.138;5.446;2023-03-03T12:01:35;102888.50;;;7.00;75.68
71768;BME280;59604;52.138;5.446;2023-03-03T12:04:14;102883.13;;;7.37;76.60
71768;BME280;59604;52.138;5.446;2023-03-03T12:06:57;102884.38;;;7.66;74.59
71768;BME280;59604;52.138;5.446;2023-03-03T12:09:57;102878.97;;;7.57;73.06
71768;BME280;59604;52.138;5.446;2023-03-03T12:12:33;102878.78;;;7.24;73.70
71768;BME280;59604;52.138;5.446;2023-03-03T12:15:05;102874.78;;;7.43;73.30
71768;BME280;59604;52.138;5.446;2023-03-03T12:23:34;102872.53;;;7.94;70.14
71768;BME280;59604;52.138;5.446;2023-03-03T12:26:10;102867.28;;;8.17;69.69
71768;BME280;59604;52.138;5.446;2023-03-03T12:48:20;102849.06;;;8.59;64.72
71768;BME280;59604;52.138;5.446;2023-03-03T12:50:52;102832.97;;;8.84;64.19
71768;BME280;59604;52.138;5.446;2023-03-03T12:59:12;102850.31;;;8.43;64.46
71768;BME280;59604;52.138;5.446;2023-03-03T13:01:55;102847.09;;;8.40;66.87
71768;BME280;59604;52.138;5.446;2023-03-03T13:09:58;102840.69;;;8.10;70.19
71768;BME280;59604;52.138;5.446;2023-03-03T13:12:45;102844.88;;;8.02;70.57
71768;BME280;59604;52.138;5.446;2023-03-03T13:15:31;102843.59;;;7.85;70.58
71768;BME280;59604;52.138;5.446;2023-03-03T13:24:34;102845.25;;;7.74;70.01
71768;BME280;59604;52.138;5.446;2023-03-03T13:27:13;102842.75;;;7.84;69.35
71768;BME280;59604;52.138;5.446;2023-03-03T13:32:33;102836.38;;;8.09;68.17
71768;BME280;59604;52.138;5.446;2023-03-03T13:35:08;102835.34;;;8.01;68.12
71768;BME280;59604;52.138;5.446;2023-03-03T13:37:47;102843.91;;;7.91;68.33
71768;BME280;59604;52.138;5.446;2023-03-03T13:40:27;102838.69;;;7.80;69.19
71768;BME280;59604;52.138;5.446;2023-03-03T13:43:07;102839.75;;;7.89;69.74
71768;BME280;59604;52.138;5.446;2023-03-03T13:45:58;102839.41;;;7.93;69.98
71768;BME280;59604;52.138;5.446;2023-03-03T13:48:41;102850.50;;;7.86;70.31
71768;BME280;59604;52.138;5.446;2023-03-03T13:51:32;102843.22;;;7.78;70.53
71768;BME280;59604;52.138;5.446;2023-03-03T13:54:08;102829.75;;;7.71;70.42
71768;BME280;59604;52.138;5.446;2023-03-03T13:56:42;102841.44;;;7.67;71.03
71768;BME280;59604;52.138;5.446;2023-03-03T14:05:36;102833.22;;;7.61;71.58
71768;BME280;59604;52.138;5.446;2023-03-03T14:11:10;102837.25;;;7.65;71.95
71768;BME280;59604;52.138;5.446;2023-03-03T14:16:21;102834.63;;;7.65;70.95
71768;BME280;59604;52.138;5.446;2023-03-03T14:19:02;102834.16;;;7.71;71.56
71768;BME280;59604;52.138;5.446;2023-03-03T14:24:20;102827.13;;;7.83;70.58
71768;BME280;59604;52.138;5.446;2023-03-03T14:26:54;102822.63;;;7.73;69.11
71768;BME280;59604;52.138;5.446;2023-03-03T14:29:30;102825.81;;;7.77;69.11
71768;BME280;59604;52.138;5.446;2023-03-03T14:31:59;102816.53;;;7.84;68.43
71768;BME280;59604;52.138;5.446;2023-03-03T14:34:35;102821.03;;;7.82;68.79
71768;BME280;59604;52.138;5.446;2023-03-03T14:42:36;102814.13;;;7.92;67.49
71768;BME280;59604;52.138;5.446;2023-03-03T14:45:37;102812.19;;;7.94;66.11
71768;BME280;59604;52.138;5.446;2023-03-03T14:48:22;102811.13;;;7.97;65.86
71768;BME280;59604;52.138;5.446;2023-03-03T14:50:59;102812.31;;;8.04;65.07
71768;BME280;59604;52.138;5.446;2023-03-03T14:53:44;102806.56;;;8.10;64.72
71768;BME280;59604;52.138;5.446;2023-03-03T14:56:36;102802.84;;;8.13;65.02
71768;BME280;59604;52.138;5.446;2023-03-03T14:59:17;102804.88;;;8.09;64.31
71768;BME280;59604;52.138;5.446;2023-03-03T15:01:46;102804.66;;;8.01;63.99
71768;BME280;59604;52.138;5.446;2023-03-03T15:09:37;102806.34;;;7.91;64.12
71768;BME280;59604;52.138;5.446;2023-03-03T15:17:39;102798.41;;;7.70;66.62
71768;BME280;59604;52.138;5.446;2023-03-03T15:25:55;102793.84;;;7.72;67.50
71768;BME280;59604;52.138;5.446;2023-03-03T15:34:19;102788.25;;;7.54;67.20
71768;BME280;59604;52.138;5.446;2023-03-03T15:42:23;102781.13;;;7.34;67.09
71768;BME280;59604;52.138;5.446;2023-03-03T15:44:57;102782.31;;;7.30;67.09
71768;BME280;59604;52.138;5.446;2023-03-03T15:48:09;102778.13;;;7.27;67.71
71768;BME280;59604;52.138;5.446;2023-03-03T16:03:54;102774.91;;;7.01;67.56
71768;BME280;59604;52.138;5.446;2023-03-03T16:09:36;102776.75;;;6.88;67.96
71768;BME280;59604;52.138;5.446;2023-03-03T16:15:18;102777.94;;;6.84;68.75
71768;BME280;59604;52.138;5.446;2023-03-03T16:20:41;102778.97;;;6.70;67.42
71768;BME280;59604;52.138;5.446;2023-03-03T16:28:50;102785.91;;;6.71;68.18
71768;BME280;59604;52.138;5.446;2023-03-03T16:31:44;102783.97;;;6.73;67.94
71768;BME280;59604;52.138;5.446;2023-03-03T16:34:19;102784.22;;;6.70;68.08
71768;BME280;59604;52.138;5.446;2023-03-03T16:47:14;102774.31;;;6.62;68.94
71768;BME280;59604;52.138;5.446;2023-03-03T16:49:51;102771.47;;;6.65;69.21
71768;BME280;59604;52.138;5.446;2023-03-03T16:52:39;102777.66;;;6.64;68.86
71768;BME280;59604;52.138;5.446;2023-03-03T16:55:19;102777.88;;;6.61;69.44
71768;BME280;59604;52.138;5.446;2023-03-03T17:00:22;102780.13;;;6.54;69.21
71768;BME280;59604;52.138;5.446;2023-03-03T17:05:47;102781.28;;;6.50;69.60
71768;BME280;59604;52.138;5.446;2023-03-03T17:11:37;102791.16;;;6.47;70.16
71768;BME280;59604;52.138;5.446;2023-03-03T17:17:24;102784.69;;;6.40;70.54
71768;BME280;59604;52.138;5.446;2023-03-03T17:25:32;102789.78;;;6.30;71.38
71768;BME280;59604;52.138;5.446;2023-03-03T17:31:26;102792.50;;;6.28;71.78
71768;BME280;59604;52.138;5.446;2023-03-03T17:42:04;102806.03;;;6.22;72.83
71768;BME280;59604;52.138;5.446;2023-03-03T17:44:43;102807.09;;;6.20;72.43
71768;BME280;59604;52.138;5.446;2023-03-03T17:47:19;102807.31;;;6.17;72.86
71768;BME280;59604;52.138;5.446;2023-03-03T17:58:38;102817.81;;;6.04;72.93
71768;BME280;59604;52.138;5.446;2023-03-03T18:01:26;102821.38;;;6.03;73.05